Oquinn, Texas
Current Conditions -  °F | °C
As of 4:10 AM on Saturday 20 Dec 2014 (Local Time) from K3T5 Reporting Station
Overcast Overcast  
Wind Chill: 50°   Ceiling: 1200
Heat Index: 50°   Visibility: 10mi
Dew Point: 48°   Wind: 6mph
Humidity: 93%   Direction: 30°NNE
Pressure: 30.15"   Gusts: NA
Location:  29.8569°N, 96.9311°W
Report Text: K3T5 201010Z AUTO 03005KT 10SM OVC012 10/09 A3015 RMK AO2 T01020091
Loading
Personal Weather Stations






























Interactive Weather Map New forecast layout! Learn more

10-Day Weather Forecast

Advertisements
Track Severe Weather on mobile